Time;durP1;ratioP1;P1;durP2;ratioP2;P2;SDS_P1;SDS_P2;PMS_P1;PMS_P2;Temp;Humidity;BMP_temperature;BMP_pressure;BME280_temperature;BME280_humidity;BME280_pressure;Samples;Min_cycle;Max_cycle;Signal;HPM_P1;HPM_P2
2023/03/03 00:04:50;;;;;;;34.23;17.90;;;;;0.40;101770.00;;;;9616692;30;20221;-79
2023/03/03 00:09:52;;;;;;;34.27;17.80;;;;;0.40;101775.00;;;;9640146;30;20204;-79
2023/03/03 00:14:54;;;;;;;31.87;16.30;;;;;0.30;101785.00;;;;9640661;30;20712;-80
2023/03/03 00:19:56;;;;;;;32.37;17.00;;;;;0.30;101783.00;;;;9640681;30;20850;-80
2023/03/03 00:25:23;;;;;;;29.90;16.57;;;;;0.20;101799.00;;;;9641072;30;20215;-79
2023/03/03 00:30:26;;;;;;;32.90;17.10;;;;;0.30;101788.00;;;;9667836;30;20733;-79
2023/03/03 00:35:37;;;;;;;44.37;16.93;;;;;0.20;101788.00;;;;9640170;30;20279;-79
2023/03/03 00:40:40;;;;;;;30.23;16.57;;;;;0.10;101786.00;;;;9657774;30;20279;-79
2023/03/03 00:45:48;;;;;;;37.33;17.87;;;;;0.10;101789.00;;;;9626250;30;20299;-79
2023/03/03 00:50:53;;;;;;;32.37;17.10;;;;;0.00;101789.00;;;;9651988;30;20201;-79
2023/03/03 00:55:56;;;;;;;30.93;16.27;;;;;-0.10;101794.00;;;;9625179;30;20322;-79
2023/03/03 01:00:58;;;;;;;35.33;17.20;;;;;-0.10;101791.00;;;;9625060;30;21038;-79
2023/03/03 01:06:11;;;;;;;31.27;16.93;;;;;-0.20;101791.00;;;;9618846;30;20213;-80
2023/03/03 01:11:23;;;;;;;31.83;16.40;;;;;-0.30;101793.00;;;;9618048;30;20193;-79
2023/03/03 01:16:25;;;;;;;30.97;17.27;;;;;-0.40;101796.00;;;;9646303;30;20644;-80
2023/03/03 01:21:27;;;;;;;35.43;17.80;;;;;-0.50;101806.00;;;;9639689;30;20224;-79
2023/03/03 01:26:30;;;;;;;31.17;16.67;;;;;-0.60;101791.00;;;;9653067;30;20212;-79
2023/03/03 01:31:33;;;;;;;34.20;17.63;;;;;-0.70;101800.00;;;;9639097;30;20205;-78
2023/03/03 01:36:36;;;;;;;36.77;18.17;;;;;-0.70;101798.00;;;;9633588;30;20243;-80
2023/03/03 01:41:38;;;;;;;34.57;18.00;;;;;-0.70;101802.00;;;;9623800;30;20294;-79
2023/03/03 01:46:55;;;;;;;36.93;17.47;;;;;-0.80;101803.00;;;;9638394;30;20219;-79
2023/03/03 01:52:00;;;;;;;32.87;18.60;;;;;-0.80;101805.00;;;;9632168;30;20331;-80
2023/03/03 01:57:05;;;;;;;32.27;18.70;;;;;-0.80;101804.00;;;;9649417;30;20529;-79
2023/03/03 02:02:08;;;;;;;36.73;18.33;;;;;-0.80;101797.00;;;;9638202;30;20224;-79
2023/03/03 02:07:11;;;;;;;42.07;20.53;;;;;-0.70;101793.00;;;;9637127;30;20232;-79
2023/03/03 02:12:17;;;;;;;38.70;20.73;;;;;-0.60;101792.00;;;;9638465;30;20208;-79
2023/03/03 02:17:19;;;;;;;36.33;19.67;;;;;-0.50;101784.00;;;;9633870;30;20834;-80
2023/03/03 02:22:44;;;;;;;38.50;19.67;;;;;-0.50;101777.00;;;;9623397;30;20307;-80
2023/03/03 02:27:47;;;;;;;38.87;19.30;;;;;-0.60;101788.00;;;;9644165;30;20208;-80
2023/03/03 02:32:49;;;;;;;43.33;21.70;;;;;-0.60;101789.00;;;;9630462;30;20201;-78
2023/03/03 02:37:51;;;;;;;43.70;22.23;;;;;-0.40;101784.00;;;;9644189;30;20197;-79
2023/03/03 02:42:55;;;;;;;42.50;20.00;;;;;-0.30;101785.00;;;;9609141;30;20220;-79
2023/03/03 02:47:57;;;;;;;45.83;22.80;;;;;-0.30;101791.00;;;;9583778;30;20209;-79
2023/03/03 02:52:59;;;;;;;46.17;22.33;;;;;-0.40;101797.00;;;;9627346;30;20604;-79
2023/03/03 02:58:02;;;;;;;49.00;23.30;;;;;-0.40;101808.00;;;;9645202;30;20225;-79
2023/03/03 03:03:05;;;;;;;55.87;26.00;;;;;-0.30;101807.00;;;;9640258;30;20697;-79
2023/03/03 03:08:09;;;;;;;57.40;27.37;;;;;0.00;101803.00;;;;9617986;30;20211;-79
2023/03/03 03:13:10;;;;;;;69.53;30.60;;;;;0.20;101804.00;;;;9630044;30;20225;-80
2023/03/03 03:18:16;;;;;;;64.87;31.00;;;;;0.40;101796.00;;;;9664459;30;20891;-80
2023/03/03 03:23:22;;;;;;;63.37;29.80;;;;;0.50;101798.00;;;;9661545;30;20224;-79
2023/03/03 03:28:24;;;;;;;54.67;27.77;;;;;0.60;101809.00;;;;9648707;30;20259;-80
2023/03/03 03:33:28;;;;;;;55.40;27.67;;;;;0.60;101809.00;;;;9642393;30;20201;-80
2023/03/03 03:38:32;;;;;;;65.80;29.27;;;;;0.70;101817.00;;;;9655615;30;20279;-81
2023/03/03 03:43:34;;;;;;;61.27;27.80;;;;;0.70;101822.00;;;;9641587;30;20618;-79
2023/03/03 03:48:37;;;;;;;62.90;28.87;;;;;0.70;101823.00;;;;9654730;30;20204;-80
2023/03/03 03:53:41;;;;;;;53.83;27.77;;;;;0.60;101830.00;;;;9609029;30;20201;-79
2023/03/03 03:58:44;;;;;;;53.77;26.60;;;;;0.60;101828.00;;;;9647326;30;20236;-79
2023/03/03 04:03:48;;;;;;;60.63;27.80;;;;;0.60;101837.00;;;;9626457;30;20242;-80
2023/03/03 04:08:55;;;;;;;62.07;28.10;;;;;0.60;101834.00;;;;9626948;30;20294;-79
2023/03/03 04:13:59;;;;;;;61.03;27.70;;;;;0.60;101833.00;;;;9654772;30;20197;-79
2023/03/03 04:19:02;;;;;;;62.30;28.47;;;;;0.60;101834.00;;;;9614461;30;20209;-79
2023/03/03 04:24:06;;;;;;;57.10;25.93;;;;;0.60;101834.00;;;;9618721;30;20316;-79
2023/03/03 04:29:09;;;;;;;57.23;27.43;;;;;0.60;101842.00;;;;9644275;30;20215;-80
2023/03/03 04:34:12;;;;;;;64.13;27.83;;;;;0.50;101837.00;;;;9626480;30;20196;-79
2023/03/03 04:39:15;;;;;;;58.57;26.93;;;;;0.60;101840.00;;;;9610365;30;20253;-79
2023/03/03 04:44:17;;;;;;;57.33;27.23;;;;;0.60;101845.00;;;;9618680;30;20257;-79
2023/03/03 04:49:19;;;;;;;57.73;25.77;;;;;0.60;101851.00;;;;9639792;30;20326;-79
2023/03/03 04:54:21;;;;;;;60.60;28.67;;;;;0.60;101853.00;;;;9654630;30;20287;-79
2023/03/03 04:59:24;;;;;;;57.47;25.93;;;;;0.70;101862.00;;;;9631665;30;20240;-80
2023/03/03 05:04:27;;;;;;;56.53;26.00;;;;;0.60;101870.00;;;;9630220;30;20661;-79
2023/03/03 05:09:29;;;;;;;51.90;24.47;;;;;0.60;101870.00;;;;9664133;30;20665;-79
2023/03/03 05:14:31;;;;;;;51.53;25.20;;;;;0.60;101881.00;;;;9640333;30;20212;-80
2023/03/03 05:19:34;;;;;;;51.87;23.13;;;;;0.60;101875.00;;;;9612846;30;20281;-79
2023/03/03 05:24:36;;;;;;;44.40;22.23;;;;;0.60;101880.00;;;;9652525;30;20220;-79
2023/03/03 05:29:38;;;;;;;51.00;23.80;;;;;0.60;101880.00;;;;9636923;30;20665;-80
2023/03/03 05:34:40;;;;;;;44.67;22.87;;;;;0.60;101883.00;;;;9642813;30;20200;-80
2023/03/03 05:39:43;;;;;;;46.53;22.80;;;;;0.60;101888.00;;;;9638350;30;20244;-79
2023/03/03 05:44:45;;;;;;;46.83;22.93;;;;;0.60;101893.00;;;;9632924;30;20225;-80
2023/03/03 05:49:47;;;;;;;43.50;23.03;;;;;0.50;101896.00;;;;9616460;30;20205;-80
2023/03/03 05:54:49;;;;;;;48.57;24.60;;;;;0.50;101898.00;;;;9624270;30;20400;-79
2023/03/03 05:59:51;;;;;;;45.93;22.93;;;;;0.50;101909.00;;;;9641167;30;20666;-80
2023/03/03 06:04:53;;;;;;;42.10;22.83;;;;;0.60;101906.00;;;;9641662;30;20218;-79
2023/03/03 06:09:55;;;;;;;45.90;23.50;;;;;0.60;101912.00;;;;9629977;30;20303;-80
2023/03/03 06:14:59;;;;;;;44.47;23.37;;;;;0.60;101907.00;;;;9639964;30;20209;-80
2023/03/03 06:20:03;;;;;;;46.47;23.73;;;;;0.60;101918.00;;;;9620240;30;20212;-78
2023/03/03 06:25:05;;;;;;;49.20;23.87;;;;;0.60;101927.00;;;;9630175;30;20247;-79
2023/03/03 06:30:07;;;;;;;48.67;24.57;;;;;0.60;101928.00;;;;9614939;30;20204;-79
2023/03/03 06:35:09;;;;;;;53.33;25.70;;;;;0.60;101932.00;;;;9657561;30;20207;-79
2023/03/03 06:40:12;;;;;;;48.07;23.43;;;;;0.70;101943.00;;;;9608057;30;20295;-78
2023/03/03 06:45:14;;;;;;;49.80;23.33;;;;;0.70;101947.00;;;;9635325;30;20329;-78
2023/03/03 06:50:19;;;;;;;48.17;23.73;;;;;0.70;101951.00;;;;9609248;30;20860;-79
2023/03/03 06:55:22;;;;;;;49.87;24.23;;;;;0.70;101953.00;;;;9651629;30;20220;-78
2023/03/03 07:00:26;;;;;;;59.53;25.30;;;;;0.70;101963.00;;;;9620539;30;20325;-78
2023/03/03 07:05:33;;;;;;;56.23;24.53;;;;;0.80;101976.00;;;;9624764;30;20307;-79
2023/03/03 07:10:35;;;;;;;54.50;24.80;;;;;0.80;101980.00;;;;9622385;30;20212;-79
2023/03/03 07:15:37;;;;;;;55.13;24.70;;;;;0.80;101971.00;;;;9642094;30;20204;-79
2023/03/03 07:20:39;;;;;;;54.33;24.93;;;;;0.80;101989.00;;;;9628820;30;20209;-79
2023/03/03 07:25:44;;;;;;;52.23;24.93;;;;;0.80;102000.00;;;;9601796;30;20719;-79
2023/03/03 07:30:47;;;;;;;50.70;24.50;;;;;0.80;102004.00;;;;9626690;30;20573;-79
2023/03/03 07:35:49;;;;;;;56.93;23.67;;;;;0.80;102008.00;;;;9643917;30;20197;-79
2023/03/03 07:40:54;;;;;;;46.67;24.30;;;;;0.90;102005.00;;;;9629522;30;20280;-79
2023/03/03 07:46:42;;;;;;;52.80;25.03;;;;;1.00;102023.00;;;;9624730;30;20597;-79
2023/03/03 07:51:44;;;;;;;52.73;24.37;;;;;1.00;102012.00;;;;9601869;30;20275;-79
2023/03/03 07:56:46;;;;;;;48.97;22.87;;;;;1.10;102020.00;;;;9622443;30;20236;-79
2023/03/03 08:01:55;;;;;;;43.23;21.47;;;;;1.10;102031.00;;;;9631385;30;20232;-78
2023/03/03 08:06:59;;;;;;;47.30;20.00;;;;;1.20;102030.00;;;;9625370;30;20212;-79
2023/03/03 08:12:18;;;;;;;41.10;20.40;;;;;1.20;102036.00;;;;9650308;30;20319;-80
2023/03/03 08:17:23;;;;;;;39.27;19.57;;;;;1.30;102036.00;;;;9611204;30;20212;-79
2023/03/03 08:22:34;;;;;;;37.87;18.13;;;;;1.40;102048.00;;;;9625040;30;20223;-79
2023/03/03 08:27:36;;;;;;;39.20;19.60;;;;;1.50;102048.00;;;;9621859;30;20218;-79
2023/03/03 08:32:38;;;;;;;40.27;18.57;;;;;1.60;102038.00;;;;9642137;30;20259;-79
2023/03/03 08:37:40;;;;;;;59.20;20.23;;;;;1.70;102053.00;;;;9653745;30;20372;-79
2023/03/03 08:42:43;;;;;;;41.93;19.13;;;;;1.80;102059.00;;;;9653415;30;20227;-79
2023/03/03 08:47:45;;;;;;;39.13;19.57;;;;;1.90;102066.00;;;;9616828;30;20210;-79
2023/03/03 08:52:47;;;;;;;35.57;19.13;;;;;2.00;102061.00;;;;9609946;30;20230;-79
2023/03/03 08:57:49;;;;;;;38.33;18.53;;;;;2.10;102076.00;;;;9639079;30;20244;-79
2023/03/03 09:02:51;;;;;;;38.60;18.90;;;;;2.10;102085.00;;;;9624650;30;20984;-79
2023/03/03 09:07:54;;;;;;;42.57;18.13;;;;;2.10;102080.00;;;;9623216;30;20212;-79
2023/03/03 09:13:00;;;;;;;36.93;17.73;;;;;2.20;102078.00;;;;9623892;30;20290;-79
2023/03/03 09:18:23;;;;;;;37.90;16.77;;;;;2.40;102092.00;;;;9631282;30;20201;-80
2023/03/03 09:23:41;;;;;;;36.27;17.60;;;;;2.50;102102.00;;;;9602798;30;20829;-79
2023/03/03 09:28:43;;;;;;;42.53;18.13;;;;;2.50;102096.00;;;;9618906;30;20717;-79
2023/03/03 09:33:48;;;;;;;36.80;17.97;;;;;2.50;102101.00;;;;9615135;30;20296;-79
2023/03/03 09:38:51;;;;;;;37.50;17.87;;;;;2.60;102112.00;;;;9619316;30;20760;-79
2023/03/03 09:44:18;;;;;;;34.97;17.37;;;;;2.70;102107.00;;;;9636058;30;20236;-79
2023/03/03 09:49:43;;;;;;;34.80;17.53;;;;;2.80;102113.00;;;;9638445;30;20743;-79
2023/03/03 09:54:55;;;;;;;41.23;17.90;;;;;2.90;102112.00;;;;9635633;30;20574;-79
2023/03/03 10:00:18;;;;;;;39.40;18.37;;;;;3.10;102112.00;;;;9625089;30;20237;-80
2023/03/03 10:05:45;;;;;;;37.87;18.13;;;;;3.40;102116.00;;;;9636575;30;20259;-79
2023/03/03 10:11:29;;;;;;;37.77;18.17;;;;;3.70;102122.00;;;;9641204;30;20307;-80
2023/03/03 10:17:13;;;;;;;38.17;19.17;;;;;3.90;102130.00;;;;9596351;30;20216;-79
2023/03/03 10:22:27;;;;;;;37.73;17.37;;;;;4.00;102126.00;;;;9585607;30;20805;-79
2023/03/03 10:27:55;;;;;;;37.40;17.53;;;;;4.10;102131.00;;;;9612343;30;20209;-79
2023/03/03 10:33:00;;;;;;;36.23;18.37;;;;;4.40;102129.00;;;;9624211;30;20215;-79
2023/03/03 10:38:36;;;;;;;34.47;17.80;;;;;4.90;102128.00;;;;9617801;30;20327;-79
2023/03/03 10:44:26;;;;;;;33.47;17.03;;;;;5.10;102120.00;;;;9633453;30;20296;-79
2023/03/03 10:49:36;;;;;;;31.40;15.50;;;;;5.00;102127.00;;;;9613688;30;20220;-79
2023/03/03 10:55:05;;;;;;;32.60;17.27;;;;;5.10;102129.00;;;;9621147;30;20251;-79
2023/03/03 11:00:41;;;;;;;34.13;16.20;;;;;5.40;102129.00;;;;9603974;30;20240;-80
2023/03/03 11:06:12;;;;;;;31.60;16.13;;;;;5.70;102125.00;;;;9624655;30;20219;-79
2023/03/03 11:11:39;;;;;;;29.80;16.40;;;;;6.10;102128.00;;;;9631504;30;20205;-79
2023/03/03 11:16:47;;;;;;;28.33;15.00;;;;;6.20;102127.00;;;;9631784;30;20256;-77
2023/03/03 11:22:08;;;;;;;29.47;15.43;;;;;6.70;102131.00;;;;9611373;30;20307;-79
2023/03/03 11:27:49;;;;;;;29.73;14.80;;;;;6.70;102126.00;;;;9624496;30;20201;-78
2023/03/03 11:33:05;;;;;;;28.20;14.87;;;;;7.10;102114.00;;;;9640305;30;20213;-77
2023/03/03 11:38:27;;;;;;;29.70;14.83;;;;;7.60;102122.00;;;;9636453;30;20267;-77
2023/03/03 11:43:29;;;;;;;27.90;14.30;;;;;7.50;102113.00;;;;9618240;30;20758;-79
2023/03/03 11:48:53;;;;;;;27.17;13.90;;;;;7.80;102117.00;;;;9627267;30;20722;-78
2023/03/03 11:54:02;;;;;;;27.43;14.23;;;;;8.00;102109.00;;;;9629873;30;20212;-78
2023/03/03 11:59:32;;;;;;;28.63;14.87;;;;;7.90;102103.00;;;;9618884;30;20244;-78
2023/03/03 12:04:43;;;;;;;25.80;15.70;;;;;8.10;102104.00;;;;9624154;30;20217;-78
2023/03/03 12:09:45;;;;;;;29.23;15.17;;;;;8.70;102090.00;;;;9619260;30;20212;-79
2023/03/03 12:15:03;;;;;;;30.30;16.03;;;;;8.60;102094.00;;;;9626588;30;20205;-78
2023/03/03 12:20:22;;;;;;;25.73;13.47;;;;;7.90;102094.00;;;;9620049;30;20677;-78
2023/03/03 12:25:33;;;;;;;23.47;13.73;;;;;7.40;102090.00;;;;9644496;30;20227;-78
2023/03/03 12:31:04;;;;;;;22.40;13.93;;;;;7.10;102093.00;;;;9629474;30;20240;-78
2023/03/03 12:36:13;;;;;;;27.43;15.00;;;;;8.70;102076.00;;;;9637451;30;20263;-78
2023/03/03 12:41:19;;;;;;;25.80;14.03;;;;;9.60;102081.00;;;;9618575;30;20215;-77
2023/03/03 12:46:32;;;;;;;23.23;13.40;;;;;9.70;102073.00;;;;9656735;30;20707;-79
2023/03/03 12:52:00;;;;;;;22.20;12.53;;;;;10.00;102070.00;;;;9649599;30;20239;-78
2023/03/03 12:57:38;;;;;;;22.37;13.43;;;;;10.50;102069.00;;;;9623183;30;20208;-77
2023/03/03 13:03:03;;;;;;;21.77;13.23;;;;;10.70;102068.00;;;;9637833;30;20221;-77
2023/03/03 13:08:30;;;;;;;18.83;12.07;;;;;10.80;102061.00;;;;9633129;30;20239;-77
2023/03/03 13:14:01;;;;;;;20.90;12.97;;;;;11.10;102057.00;;;;9638238;30;20215;-77
2023/03/03 13:19:28;;;;;;;23.50;13.63;;;;;11.60;102052.00;;;;9641003;30;20299;-77
2023/03/03 13:24:59;;;;;;;21.83;12.83;;;;;11.60;102051.00;;;;9631644;30;20237;-77
2023/03/03 13:30:22;;;;;;;22.43;12.70;;;;;11.90;102043.00;;;;9634333;30;20239;-77
2023/03/03 13:36:11;;;;;;;20.77;11.90;;;;;12.30;102038.00;;;;9628651;30;20247;-77
2023/03/03 13:41:27;;;;;;;24.40;12.93;;;;;11.80;102043.00;;;;9611226;30;20288;-78
2023/03/03 13:46:48;;;;;;;21.83;13.00;;;;;11.80;102040.00;;;;9626822;30;20260;-77
2023/03/03 13:52:10;;;;;;;20.83;12.73;;;;;11.00;102028.00;;;;9627259;30;20221;-77
2023/03/03 13:58:03;;;;;;;19.77;11.73;;;;;11.80;102028.00;;;;9613332;30;20201;-77
2023/03/03 14:03:56;;;;;;;18.83;11.90;;;;;12.10;102034.00;;;;9629094;30;20255;-77
2023/03/03 14:09:21;;;;;;;20.67;11.80;;;;;12.50;102011.00;;;;9512612;31;20210;-77
2023/03/03 14:14:26;;;;;;;15.53;9.93;;;;;13.50;102004.00;;;;9611957;30;20232;-77
2023/03/03 14:19:35;;;;;;;20.27;11.40;;;;;14.10;101997.00;;;;9640212;30;20298;-78
2023/03/03 14:25:01;;;;;;;20.67;11.37;;;;;14.30;102003.00;;;;9634777;30;20273;-76
2023/03/03 14:30:26;;;;;;;19.03;10.97;;;;;13.30;101975.00;;;;9648278;30;20208;-79
2023/03/03 14:35:32;;;;;;;18.90;10.47;;;;;13.70;101986.00;;;;9631206;30;20239;-79
2023/03/03 14:40:37;;;;;;;20.53;10.17;;;;;13.10;101981.00;;;;9628532;30;20209;-76
2023/03/03 14:45:40;;;;;;;15.93;8.97;;;;;14.30;101964.00;;;;9631083;30;20226;-79
2023/03/03 14:50:52;;;;;;;16.83;10.73;;;;;13.60;101977.00;;;;9626663;30;20609;-77
2023/03/03 14:55:54;;;;;;;15.17;9.07;;;;;15.30;101930.00;;;;9631038;30;20224;-76
2023/03/03 15:01:11;;;;;;;16.13;9.73;;;;;13.60;102020.00;;;;9653344;30;20243;-76
2023/03/03 15:06:28;;;;;;;17.43;9.73;;;;;14.80;101920.00;;;;9629722;30;20280;-79
2023/03/03 15:11:32;;;;;;;16.60;9.57;;;;;16.40;101937.00;;;;9622776;30;20747;-77
2023/03/03 15:16:34;;;;;;;12.97;7.80;;;;;16.80;101921.00;;;;9635448;30;20200;-79
2023/03/03 15:21:46;;;;;;;16.90;8.60;;;;;13.40;102001.00;;;;9630181;30;20209;-76
2023/03/03 15:27:11;;;;;;;11.90;8.13;;;;;11.60;101966.00;;;;9636042;30;20232;-77
2023/03/03 15:32:25;;;;;;;14.93;7.90;;;;;10.60;101967.00;;;;9645601;30;20665;-78
2023/03/03 15:37:54;;;;;;;12.80;7.63;;;;;9.40;101977.00;;;;9643159;30;20204;-78
2023/03/03 15:43:47;;;;;;;11.57;7.27;;;;;9.20;101985.00;;;;9650501;30;20256;-78
2023/03/03 15:49:12;;;;;;;11.00;7.77;;;;;9.00;101983.00;;;;9586687;30;20208;-78
2023/03/03 15:54:32;;;;;;;10.23;6.70;;;;;8.70;101979.00;;;;9639611;30;20227;-78
2023/03/03 15:59:51;;;;;;;12.23;7.20;;;;;8.40;101970.00;;;;9636793;30;20298;-78
2023/03/03 16:05:34;;;;;;;10.97;6.67;;;;;8.00;101967.00;;;;9636940;30;20236;-78
2023/03/03 16:10:52;;;;;;;9.87;5.90;;;;;7.60;101974.00;;;;9628933;30;20303;-78
2023/03/03 16:16:20;;;;;;;10.37;6.27;;;;;7.30;101980.00;;;;9621709;30;20204;-79
2023/03/03 16:21:34;;;;;;;11.17;6.53;;;;;7.10;101977.00;;;;9650023;30;20593;-80
2023/03/03 16:26:48;;;;;;;10.97;7.20;;;;;6.90;101981.00;;;;9638502;30;20308;-78
2023/03/03 16:31:54;;;;;;;11.03;6.93;;;;;6.80;101976.00;;;;9632138;30;20267;-79
2023/03/03 16:36:56;;;;;;;14.03;6.57;;;;;6.70;101979.00;;;;9636426;30;20264;-79
2023/03/03 16:42:13;;;;;;;12.77;7.10;;;;;6.60;101985.00;;;;9634071;30;20205;-80
2023/03/03 16:47:28;;;;;;;10.17;7.00;;;;;6.70;101984.00;;;;9646202;30;20263;-80
2023/03/03 16:53:15;;;;;;;11.03;6.50;;;;;6.70;101977.00;;;;9622775;30;20212;-80
2023/03/03 16:58:29;;;;;;;11.50;7.60;;;;;6.70;101986.00;;;;9644165;30;20228;-79
2023/03/03 17:03:47;;;;;;;14.37;6.53;;;;;6.50;101997.00;;;;9628210;30;20395;-78
2023/03/03 17:09:32;;;;;;;11.53;7.00;;;;;6.40;101997.00;;;;9644258;30;20220;-79
2023/03/03 17:14:42;;;;;;;11.47;6.87;;;;;6.30;101999.00;;;;9632224;30;20208;-79
2023/03/03 17:20:05;;;;;;;11.10;6.83;;;;;6.20;102000.00;;;;9634510;30;20212;-79
2023/03/03 17:25:39;;;;;;;17.73;8.30;;;;;6.10;102017.00;;;;9633586;30;20282;-80
2023/03/03 17:30:48;;;;;;;12.20;6.63;;;;;6.10;102016.00;;;;9633368;30;20196;-79
2023/03/03 17:36:16;;;;;;;10.00;6.57;;;;;6.00;102020.00;;;;9630020;30;20212;-79
2023/03/03 17:41:33;;;;;;;11.17;6.73;;;;;5.70;102020.00;;;;9607636;30;20238;-79
2023/03/03 17:46:44;;;;;;;8.60;6.67;;;;;5.40;102025.00;;;;9636870;30;20224;-79
2023/03/03 17:51:58;;;;;;;8.87;6.20;;;;;5.20;102026.00;;;;9628251;30;20232;-79
2023/03/03 17:57:34;;;;;;;7.73;6.23;;;;;5.00;102032.00;;;;9652355;30;20227;-79
2023/03/03 18:02:58;;;;;;;10.80;6.90;;;;;4.90;102039.00;;;;9635644;30;20890;-79
2023/03/03 18:08:19;;;;;;;12.90;8.27;;;;;4.80;102042.00;;;;9626641;30;20229;-80
2023/03/03 18:13:44;;;;;;;12.93;8.40;;;;;4.60;102040.00;;;;9640285;30;20199;-81
2023/03/03 18:19:18;;;;;;;11.13;7.03;;;;;4.70;102050.00;;;;9637365;30;20210;-79
2023/03/03 18:24:50;;;;;;;13.27;7.03;;;;;4.90;102059.00;;;;9630650;30;20239;-80
2023/03/03 18:30:24;;;;;;;11.63;6.97;;;;;5.00;102052.00;;;;9628771;30;20279;-79
2023/03/03 18:35:36;;;;;;;12.33;8.07;;;;;5.20;102056.00;;;;9649877;30;20203;-79
2023/03/03 18:41:07;;;;;;;14.60;8.50;;;;;5.20;102062.00;;;;9637105;30;20216;-80
2023/03/03 18:46:18;;;;;;;11.40;7.70;;;;;5.20;102062.00;;;;9621392;30;20249;-80
2023/03/03 18:51:33;;;;;;;13.23;7.83;;;;;5.30;102065.00;;;;9655507;30;20240;-80
2023/03/03 18:56:46;;;;;;;17.27;11.43;;;;;5.30;102068.00;;;;9646106;30;20269;-79
2023/03/03 19:01:50;;;;;;;24.83;14.13;;;;;5.30;102059.00;;;;9662146;30;20298;-79
2023/03/03 19:06:55;;;;;;;18.73;11.70;;;;;5.30;102067.00;;;;9646634;30;20215;-79
2023/03/03 19:11:57;;;;;;;14.33;11.00;;;;;5.30;102063.00;;;;9637961;30;20205;-80
2023/03/03 19:17:22;;;;;;;13.03;9.33;;;;;5.20;102065.00;;;;9642709;30;20205;-79
2023/03/03 19:22:28;;;;;;;11.37;8.30;;;;;5.20;102069.00;;;;9645763;30;20223;-80
2023/03/03 19:27:42;;;;;;;10.17;7.20;;;;;5.20;102061.00;;;;9647228;30;20318;-80
2023/03/03 19:33:20;;;;;;;12.87;7.87;;;;;5.20;102066.00;;;;9618042;30;20251;-80
2023/03/03 19:39:00;;;;;;;12.17;7.83;;;;;5.20;102065.00;;;;9634092;30;20217;-79
2023/03/03 19:44:23;;;;;;;13.03;8.10;;;;;5.20;102070.00;;;;9643280;30;20219;-79
2023/03/03 19:50:03;;;;;;;9.97;6.17;;;;;5.20;102080.00;;;;9626071;30;20227;-79
2023/03/03 19:55:32;;;;;;;7.63;5.87;;;;;5.30;102087.00;;;;9641602;30;20200;-79
2023/03/03 20:00:42;;;;;;;8.10;6.23;;;;;5.30;102086.00;;;;9631062;30;20240;-79
2023/03/03 20:06:19;;;;;;;7.20;5.97;;;;;5.40;102089.00;;;;9636592;30;20220;-80
2023/03/03 20:11:34;;;;;;;10.23;5.57;;;;;5.50;102102.00;;;;9618994;30;20305;-79
2023/03/03 20:16:42;;;;;;;8.17;6.43;;;;;5.50;102109.00;;;;9631130;30;20200;-80
2023/03/03 20:22:36;;;;;;;9.13;6.57;;;;;5.50;102106.00;;;;9620235;30;20223;-80
2023/03/03 20:28:04;;;;;;;8.20;6.77;;;;;5.50;102114.00;;;;9642872;30;20310;-79
2023/03/03 20:33:28;;;;;;;10.57;7.50;;;;;5.50;102120.00;;;;9629086;30;20197;-79
2023/03/03 20:39:03;;;;;;;11.13;7.33;;;;;5.50;102119.00;;;;9651419;30;20212;-79
2023/03/03 20:44:24;;;;;;;11.17;7.23;;;;;5.50;102118.00;;;;9634470;30;20717;-79
2023/03/03 20:50:04;;;;;;;11.30;7.57;;;;;5.60;102125.00;;;;9637324;30;20236;-79
2023/03/03 20:55:12;;;;;;;14.50;7.93;;;;;5.60;102131.00;;;;9619664;30;20215;-80
2023/03/03 21:00:28;;;;;;;8.27;7.47;;;;;5.60;102144.00;;;;9600256;30;20260;-79
2023/03/03 21:05:30;;;;;;;10.40;8.70;;;;;5.60;102143.00;;;;9646522;30;20709;-79
2023/03/03 21:10:34;;;;;;;10.07;9.03;;;;;5.60;102149.00;;;;9626353;30;20227;-79
2023/03/03 21:15:37;;;;;;;11.10;9.83;;;;;5.60;102143.00;;;;9635615;30;20296;-80
2023/03/03 21:20:40;;;;;;;11.77;9.83;;;;;5.60;102148.00;;;;9634108;30;20238;-79
2023/03/03 21:25:47;;;;;;;11.83;10.73;;;;;5.60;102141.00;;;;9627071;30;20234;-80
2023/03/03 21:31:16;;;;;;;11.13;9.67;;;;;5.60;102145.00;;;;9619221;30;20662;-80
2023/03/03 21:36:22;;;;;;;14.13;11.67;;;;;5.60;102148.00;;;;9633078;30;20318;-79
2023/03/03 21:41:24;;;;;;;15.73;11.93;;;;;5.60;102150.00;;;;9648506;30;20295;-79
2023/03/03 21:46:26;;;;;;;15.87;13.43;;;;;5.60;102159.00;;;;9626936;30;20685;-79
2023/03/03 21:51:28;;;;;;;14.07;12.57;;;;;5.60;102153.00;;;;9633789;30;20208;-80
2023/03/03 21:56:31;;;;;;;16.60;13.23;;;;;5.60;102170.00;;;;9624071;30;20201;-79
2023/03/03 22:01:34;;;;;;;15.57;12.30;;;;;5.50;102163.00;;;;9622388;30;20230;-79
2023/03/03 22:06:39;;;;;;;15.40;13.80;;;;;5.50;102172.00;;;;9635402;30;20235;-80
2023/03/03 22:11:41;;;;;;;15.53;12.50;;;;;5.50;102158.00;;;;9643104;30;20294;-80
2023/03/03 22:16:43;;;;;;;14.47;12.50;;;;;5.40;102155.00;;;;9646866;30;20204;-79
2023/03/03 22:21:45;;;;;;;15.50;12.23;;;;;5.40;102161.00;;;;9645288;30;20226;-79
2023/03/03 22:26:47;;;;;;;15.33;12.73;;;;;5.40;102172.00;;;;9648513;30;20235;-79
2023/03/03 22:31:50;;;;;;;15.53;11.67;;;;;5.30;102169.00;;;;9631731;30;20215;-80
2023/03/03 22:36:53;;;;;;;14.13;10.53;;;;;5.30;102164.00;;;;9640982;30;20223;-80
2023/03/03 22:41:55;;;;;;;14.70;10.37;;;;;5.20;102163.00;;;;9651878;30;20244;-81
2023/03/03 22:46:57;;;;;;;13.17;9.73;;;;;5.20;102163.00;;;;9659628;30;20617;-79
2023/03/03 22:52:01;;;;;;;12.03;10.67;;;;;5.20;102159.00;;;;9646517;30;20386;-79
2023/03/03 22:57:03;;;;;;;12.93;10.73;;;;;5.20;102167.00;;;;9639899;30;20211;-80
2023/03/03 23:02:05;;;;;;;11.50;10.03;;;;;5.20;102154.00;;;;9649169;30;20642;-80
2023/03/03 23:07:07;;;;;;;16.97;10.10;;;;;5.20;102159.00;;;;9636937;30;20219;-79
2023/03/03 23:12:09;;;;;;;12.20;9.40;;;;;5.10;102148.00;;;;9655959;30;20198;-79
2023/03/03 23:17:11;;;;;;;12.93;7.77;;;;;5.10;102161.00;;;;9633067;30;20300;-80
2023/03/03 23:22:15;;;;;;;15.23;7.27;;;;;5.10;102163.00;;;;9648459;30;20243;-80
2023/03/03 23:27:17;;;;;;;19.73;8.40;;;;;5.10;102154.00;;;;9610468;30;20276;-79
2023/03/03 23:32:23;;;;;;;19.27;8.63;;;;;5.10;102161.00;;;;9614594;30;20596;-79
2023/03/03 23:37:25;;;;;;;13.97;9.33;;;;;5.10;102167.00;;;;9636523;30;20311;-80
2023/03/03 23:42:29;;;;;;;15.00;10.33;;;;;5.00;102161.00;;;;9638588;30;20203;-79
2023/03/03 23:47:31;;;;;;;17.93;9.93;;;;;5.00;102165.00;;;;9643858;30;20727;-79
2023/03/03 23:52:33;;;;;;;16.63;9.90;;;;;5.00;102157.00;;;;9645705;30;20208;-81
2023/03/03 23:57:35;;;;;;;17.87;9.03;;;;;5.00;102164.00;;;;9635826;30;20946;-80
